Terminal Aerodrome Forecast
Issued by NWS Miami, FL

Home | Current Version | Previous Version | Text Only | Print | Product List | Glossary On
Versions: 1 2 3 4 5 6 7 8 9 10 11 12 13 14 15 16 17 18 19 20 21 22 23 24
000
FTUS42 KMFL 180527
TAFFLL
TAF
KFLL 180527Z 1806/1906 VRB05KT P6SM VCSH SCT025 BKN050
     FM181400 07006KT P6SM VCSH SCT020 BKN030
     FM181700 05011KT P6SM VCSH SCT025 BKN035
     FM190000 05007KT P6SM SCT025 BKN050 PROB30 1900/1906 6SM SHRA
      SCT025 BKN035=

USA.gov is the U.S. government's official web portal to all federal, state and local government web resources and services.